Washington, District of Columbia
Traffic Map
Current Weather Conditions
Washington, District of Columbia
Broken Clouds
Broken Clouds
20°
Feels Like: 13°
Wind Chill: 13° Ceiling: 19000
Heat Index: 20° Visibility: 10mi
Dew Point: Wind: 5mph
Humidity: 50% Direction: 10° (N)
Pressure: 30.33in Gusts: 0mph
Raw Report DataKDCA 121152Z 01004KT 10SM BKN190 M07/M16 A3033 RMK AO2 SLP268 T10671156 11061 21072 55002
Traffic Incident Summary
Active as of:
Severity:
Category:
InformationThere was an issue retrieving the traffic information for this location. Please try a different location or try again shortly.
Advertisements
Track Severe Weather on mobile